createdAt,value
2017-12-04T00:01:12.291Z,93.10
2017-12-04T00:03:40.557Z,93.10
2017-12-04T00:06:08.117Z,93.10
2017-12-04T00:08:35.677Z,93.00
2017-12-04T00:11:03.237Z,93.00
2017-12-04T00:13:32.205Z,93.20
2017-12-04T00:15:59.676Z,93.20
2017-12-04T00:18:27.136Z,93.40
2017-12-04T00:20:54.626Z,93.40
2017-12-04T00:23:22.854Z,93.50
2017-12-04T00:25:50.312Z,93.40
2017-12-04T00:28:17.800Z,93.50
2017-12-04T00:30:46.032Z,93.60
2017-12-04T00:33:13.532Z,93.60
2017-12-04T00:35:41.780Z,93.60
2017-12-04T00:38:09.251Z,93.60
2017-12-04T00:40:36.735Z,93.60
2017-12-04T00:43:04.973Z,93.60
2017-12-04T00:45:32.432Z,93.60
2017-12-04T00:47:59.905Z,93.60
2017-12-04T00:50:28.170Z,93.90
2017-12-04T00:52:57.161Z,93.60
2017-12-04T00:55:24.625Z,93.60
2017-12-04T00:57:52.177Z,93.50
2017-12-04T01:00:19.642Z,93.60
2017-12-04T01:02:47.490Z,93.70
2017-12-04T01:05:14.936Z,93.60
2017-12-04T01:07:42.420Z,93.70
2017-12-04T01:10:09.873Z,93.70
2017-12-04T01:12:37.444Z,93.60
2017-12-04T01:15:05.668Z,93.90
2017-12-04T01:17:33.192Z,93.60
2017-12-04T01:20:01.480Z,93.50
2017-12-04T01:22:28.942Z,93.40
2017-12-04T01:24:56.449Z,93.40
2017-12-04T01:27:23.900Z,93.50
2017-12-04T01:29:51.441Z,93.60
2017-12-04T01:32:18.897Z,93.70
2017-12-04T01:34:46.376Z,93.70
2017-12-04T01:37:13.939Z,93.70
2017-12-04T01:39:41.496Z,93.70
2017-12-04T01:42:09.161Z,93.60
2017-12-04T01:44:36.725Z,93.60
2017-12-04T01:47:04.182Z,93.50
2017-12-04T01:49:31.736Z,93.40
2017-12-04T01:51:59.204Z,93.30
2017-12-04T01:54:27.489Z,93.10
2017-12-04T01:56:54.928Z,93.10
2017-12-04T01:59:22.471Z,93.20
2017-12-04T02:01:49.941Z,92.90
2017-12-04T02:04:18.165Z,92.80
2017-12-04T02:06:45.716Z,92.80
2017-12-04T02:09:13.230Z,92.80
2017-12-04T02:11:41.465Z,92.80
2017-12-04T02:14:08.960Z,92.80
2017-12-04T02:16:36.531Z,92.80
2017-12-04T02:19:04.766Z,93.20
2017-12-04T02:21:32.239Z,92.70
2017-12-04T02:23:59.719Z,92.90
2017-12-04T02:26:27.179Z,93.10
2017-12-04T02:28:55.420Z,93.00
2017-12-04T02:31:22.886Z,93.00
2017-12-04T02:33:50.361Z,93.20
2017-12-04T02:36:17.824Z,93.10
2017-12-04T02:38:45.362Z,93.00
2017-12-04T02:41:12.824Z,93.00
2017-12-04T02:43:40.289Z,93.20
2017-12-04T02:46:08.548Z,93.40
2017-12-04T02:48:36.021Z,93.20
2017-12-04T02:51:03.494Z,93.40
2017-12-04T02:53:31.733Z,93.40
2017-12-04T02:55:59.205Z,93.40
2017-12-04T02:58:26.702Z,93.40
2017-12-04T03:00:54.181Z,93.30
2017-12-04T03:03:21.665Z,93.20
2017-12-04T03:05:49.169Z,93.10
2017-12-04T03:08:16.634Z,92.90
2017-12-04T03:10:44.137Z,93.00
2017-12-04T03:13:11.598Z,93.00
2017-12-04T03:15:39.890Z,93.10
2017-12-04T03:18:07.348Z,93.10
2017-12-04T03:20:35.581Z,93.30
2017-12-04T03:23:03.045Z,93.30
2017-12-04T03:25:30.633Z,93.20
2017-12-04T03:27:58.189Z,93.20
2017-12-04T03:30:25.750Z,93.10
2017-12-04T03:32:53.214Z,92.90
2017-12-04T03:35:21.449Z,93.10
2017-12-04T03:37:48.929Z,93.10
2017-12-04T03:40:16.401Z,93.20
2017-12-04T03:42:44.678Z,93.10
2017-12-04T03:45:12.903Z,93.10
2017-12-04T03:47:40.373Z,93.10
2017-12-04T03:50:07.842Z,93.10
2017-12-04T03:52:35.359Z,93.10
2017-12-04T03:55:03.141Z,93.10
2017-12-04T03:57:30.648Z,92.90
2017-12-04T03:59:58.883Z,92.80
2017-12-04T04:02:26.346Z,92.80
2017-12-04T04:04:53.919Z,92.80
2017-12-04T04:07:21.389Z,92.60
2017-12-04T04:09:49.614Z,92.70
2017-12-04T04:12:17.165Z,92.70
2017-12-04T04:14:44.630Z,92.50
2017-12-04T04:17:12.124Z,92.60
2017-12-04T04:19:39.597Z,92.50
2017-12-04T04:22:07.821Z,92.60
2017-12-04T04:24:35.298Z,92.60
2017-12-04T04:27:02.769Z,92.50
2017-12-04T04:29:30.240Z,92.40
2017-12-04T04:31:58.467Z,92.30
2017-12-04T04:34:25.957Z,92.30
2017-12-04T04:36:53.522Z,92.40
2017-12-04T04:39:20.984Z,92.30
2017-12-04T04:41:49.210Z,92.00
2017-12-04T04:44:16.701Z,92.00
2017-12-04T04:46:44.186Z,92.10
2017-12-04T04:49:12.400Z,92.00
2017-12-04T04:51:39.873Z,92.00
2017-12-04T04:54:07.326Z,91.90
2017-12-04T04:56:34.791Z,91.90
2017-12-04T04:59:02.269Z,92.00
2017-12-04T05:01:29.725Z,92.10
2017-12-04T05:03:57.282Z,92.00
2017-12-04T05:06:25.826Z,91.90
2017-12-04T05:08:53.313Z,91.70
2017-12-04T05:11:20.825Z,91.80
2017-12-04T05:13:48.287Z,91.90
2017-12-04T05:16:15.768Z,91.70
2017-12-04T05:18:43.245Z,91.70
2017-12-04T05:21:10.708Z,91.80
2017-12-04T05:23:38.173Z,91.60
2017-12-04T05:26:06.437Z,91.60
2017-12-04T05:28:33.892Z,91.60
2017-12-04T05:31:01.357Z,91.60
2017-12-04T05:33:28.818Z,91.50
2017-12-04T05:35:57.056Z,91.50
2017-12-04T05:38:24.519Z,91.50
2017-12-04T05:40:52.104Z,91.50
2017-12-04T05:43:19.696Z,91.40
2017-12-04T05:45:47.104Z,91.40
2017-12-04T05:48:14.577Z,91.30
2017-12-04T05:50:42.803Z,91.10
2017-12-04T05:53:10.268Z,91.00
2017-12-04T05:55:37.742Z,91.10
2017-12-04T05:58:05.211Z,91.20
2017-12-04T06:00:32.690Z,91.30
2017-12-04T06:03:00.939Z,90.80
2017-12-04T06:05:28.402Z,91.10
2017-12-04T06:07:55.895Z,90.80
2017-12-04T06:10:23.362Z,90.70
2017-12-04T06:12:50.845Z,90.70
2017-12-04T06:15:18.326Z,90.80
2017-12-04T06:17:45.886Z,90.60
2017-12-04T06:20:13.499Z,90.80
2017-12-04T06:22:40.953Z,90.60
2017-12-04T06:25:08.515Z,90.70
2017-12-04T06:27:35.970Z,90.70
2017-12-04T06:30:03.455Z,90.70
2017-12-04T06:32:30.917Z,90.70
2017-12-04T06:34:58.372Z,90.90
2017-12-04T06:37:25.830Z,90.80
2017-12-04T06:39:53.323Z,90.70
2017-12-04T06:42:21.544Z,90.80
2017-12-04T06:44:49.028Z,90.80
2017-12-04T06:47:16.513Z,90.70
2017-12-04T06:49:44.738Z,90.60
2017-12-04T06:52:12.238Z,90.50
2017-12-04T06:54:40.352Z,90.70
2017-12-04T06:57:07.830Z,90.60
2017-12-04T06:59:35.296Z,90.70
2017-12-04T07:02:02.751Z,90.60
2017-12-04T07:04:30.223Z,90.70
2017-12-04T07:06:57.682Z,90.60
2017-12-04T07:09:25.129Z,90.60
2017-12-04T07:11:52.622Z,90.60
2017-12-04T07:14:20.864Z,90.50
2017-12-04T07:16:48.426Z,90.50
2017-12-04T07:19:15.978Z,90.60
2017-12-04T07:21:43.437Z,90.60
2017-12-04T07:24:11.008Z,90.40
2017-12-04T07:26:38.553Z,90.40
2017-12-04T07:29:06.785Z,90.20
2017-12-04T07:31:34.251Z,90.20
2017-12-04T07:34:01.771Z,90.20
2017-12-04T07:36:29.988Z,90.20
2017-12-04T07:38:57.458Z,90.10
2017-12-04T07:41:25.294Z,90.10
2017-12-04T07:43:52.765Z,90.00
2017-12-04T07:46:20.309Z,89.70
2017-12-04T07:48:47.876Z,90.00
2017-12-04T07:51:15.337Z,90.00
2017-12-04T07:53:43.346Z,89.80
2017-12-04T07:56:10.803Z,89.90
2017-12-04T07:58:38.253Z,89.30
2017-12-04T08:01:05.713Z,89.60
2017-12-04T08:03:33.269Z,89.70
2017-12-04T08:06:00.731Z,89.20
2017-12-04T08:08:28.285Z,88.90
2017-12-04T08:10:55.744Z,89.10
2017-12-04T08:13:23.234Z,90.60
2017-12-04T08:15:50.712Z,88.20
2017-12-04T08:18:18.209Z,87.90
2017-12-04T08:20:45.664Z,88.40
2017-12-04T08:23:13.121Z,88.30
2017-12-04T08:25:40.585Z,88.00
2017-12-04T08:28:08.049Z,88.10
2017-12-04T08:30:36.316Z,87.70
2017-12-04T08:33:04.571Z,87.70
2017-12-04T08:35:32.107Z,88.00
2017-12-04T08:37:59.608Z,87.90
2017-12-04T08:40:27.882Z,87.40
2017-12-04T08:42:55.357Z,88.00
2017-12-04T08:45:23.804Z,87.10
2017-12-04T08:47:51.353Z,87.10
2017-12-04T08:50:18.974Z,85.80
2017-12-04T08:52:46.503Z,85.70
2017-12-04T08:55:15.485Z,85.40
2017-12-04T08:57:43.019Z,85.40
2017-12-04T09:00:10.493Z,85.30
2017-12-04T09:02:37.948Z,85.80
2017-12-04T09:05:05.527Z,85.30
2017-12-04T09:07:33.012Z,84.50
2017-12-04T09:10:00.465Z,84.70
2017-12-04T09:12:27.918Z,84.80
2017-12-04T09:14:55.372Z,83.80
2017-12-04T09:17:22.833Z,84.40
2017-12-04T09:19:50.353Z,83.90
2017-12-04T09:22:17.913Z,84.10
2017-12-04T09:24:45.368Z,84.40
2017-12-04T09:27:12.829Z,84.00
2017-12-04T09:29:40.292Z,83.80
2017-12-04T09:32:07.788Z,83.90
2017-12-04T09:34:35.976Z,83.70
2017-12-04T09:37:03.543Z,83.70
2017-12-04T09:39:31.011Z,84.10
2017-12-04T09:41:58.458Z,83.60
2017-12-04T09:44:25.946Z,83.50
2017-12-04T09:46:54.895Z,82.30
2017-12-04T09:49:22.353Z,82.30
2017-12-04T09:51:49.813Z,82.60
2017-12-04T09:54:17.287Z,84.40
2017-12-04T09:56:44.744Z,81.70
2017-12-04T09:59:12.200Z,81.50
2017-12-04T10:01:39.732Z,82.00
2017-12-04T10:04:07.189Z,83.00
2017-12-04T10:06:34.644Z,83.80
2017-12-04T10:09:02.106Z,83.90
2017-12-04T10:11:29.565Z,82.10
2017-12-04T10:13:57.078Z,82.00
2017-12-04T10:16:24.574Z,82.60
2017-12-04T10:18:52.131Z,83.20
2017-12-04T10:21:19.624Z,83.80
2017-12-04T10:23:47.082Z,89.10
2017-12-04T10:26:14.542Z,84.90
2017-12-04T10:28:42.012Z,86.10
2017-12-04T10:31:10.236Z,87.90
2017-12-04T10:33:37.693Z,87.80
2017-12-04T10:36:05.184Z,87.90
2017-12-04T10:38:32.651Z,88.40
2017-12-04T10:41:00.214Z,88.40
2017-12-04T10:43:27.769Z,88.30
2017-12-04T10:45:55.232Z,88.70
2017-12-04T10:48:22.693Z,87.70
2017-12-04T10:50:51.010Z,86.30
2017-12-04T10:53:18.574Z,86.20
2017-12-04T10:55:46.029Z,85.30
2017-12-04T10:58:13.520Z,85.40
2017-12-04T11:00:40.980Z,86.40
2017-12-04T11:03:08.442Z,85.00
2017-12-04T11:05:36.006Z,83.90
2017-12-04T11:08:04.281Z,80.60
2017-12-04T11:10:31.742Z,80.50
2017-12-04T11:12:59.296Z,80.30
2017-12-04T11:15:27.574Z,82.00
2017-12-04T11:17:56.548Z,82.10
2017-12-04T11:20:24.531Z,82.00
2017-12-04T11:22:51.994Z,82.40
2017-12-04T11:25:19.462Z,83.80
2017-12-04T11:27:47.729Z,73.50
2017-12-04T11:30:15.962Z,72.70
2017-12-04T11:32:43.449Z,71.80
2017-12-04T11:35:11.013Z,70.20
2017-12-04T11:37:38.492Z,69.90
2017-12-04T11:40:06.750Z,69.10
2017-12-04T11:42:34.990Z,71.40
2017-12-04T11:45:02.625Z,71.00
2017-12-04T11:47:30.084Z,71.30
2017-12-04T11:49:57.540Z,73.60
2017-12-04T11:52:25.053Z,75.70
2017-12-04T11:54:52.512Z,77.60
2017-12-04T11:57:20.833Z,75.60
2017-12-04T11:59:48.288Z,75.30
2017-12-04T12:02:15.753Z,75.30
2017-12-04T12:04:43.202Z,74.50
2017-12-04T12:07:10.716Z,74.40
2017-12-04T12:09:38.265Z,71.70
2017-12-04T12:12:05.734Z,73.00
2017-12-04T12:14:33.197Z,68.50
2017-12-04T12:17:01.428Z,69.70
2017-12-04T12:19:28.894Z,69.50
2017-12-04T12:21:56.362Z,68.00
2017-12-04T12:24:23.837Z,66.70
2017-12-04T12:26:52.061Z,65.10
2017-12-04T12:29:19.662Z,65.20
2017-12-04T12:31:47.924Z,66.00
2017-12-04T12:34:15.405Z,65.80
2017-12-04T12:36:43.642Z,61.60
2017-12-04T12:39:11.140Z,61.60
2017-12-04T12:41:39.366Z,65.20
2017-12-04T12:44:06.856Z,65.10
2017-12-04T12:46:34.329Z,60.60
2017-12-04T12:49:02.561Z,60.10
2017-12-04T12:51:30.036Z,60.10
2017-12-04T12:53:57.492Z,61.20
2017-12-04T12:56:24.977Z,62.40
2017-12-04T12:58:53.210Z,64.50
2017-12-04T13:01:20.680Z,64.40
2017-12-04T13:03:48.178Z,64.20
2017-12-04T13:06:15.695Z,64.40
2017-12-04T13:08:43.156Z,63.00
2017-12-04T13:11:11.401Z,66.10
2017-12-04T13:13:38.861Z,66.00
2017-12-04T13:16:06.353Z,68.00
2017-12-04T13:18:33.804Z,68.90
2017-12-04T13:21:01.363Z,70.10
2017-12-04T13:23:28.812Z,70.70
2017-12-04T13:25:56.377Z,70.90
2017-12-04T13:28:23.838Z,72.20
2017-12-04T13:30:51.322Z,73.00
2017-12-04T13:33:31.382Z,73.50
2017-12-04T13:36:10.694Z,73.40
2017-12-04T13:38:38.916Z,74.10
2017-12-04T13:41:06.411Z,74.10
2017-12-04T13:43:35.385Z,74.70
2017-12-04T13:46:02.858Z,74.90
2017-12-04T13:48:30.388Z,75.00
2017-12-04T13:50:57.857Z,75.90
2017-12-04T13:53:25.323Z,76.10
2017-12-04T13:55:52.802Z,76.40
2017-12-04T13:58:21.110Z,76.50
2017-12-04T14:00:48.571Z,76.50
2017-12-04T14:03:16.045Z,76.80
2017-12-04T14:05:43.527Z,77.30
2017-12-04T14:08:14.943Z,77.30
2017-12-04T14:10:42.409Z,77.60
2017-12-04T14:13:09.870Z,77.70
2017-12-04T14:15:37.334Z,78.20
2017-12-04T14:18:04.785Z,78.30
2017-12-04T14:20:32.322Z,79.00
2017-12-04T14:22:59.773Z,78.90
2017-12-04T14:25:27.250Z,78.20
2017-12-04T14:27:54.704Z,78.10
2017-12-04T14:30:22.169Z,78.40
2017-12-04T14:32:49.625Z,78.70
2017-12-04T14:35:17.088Z,78.60
2017-12-04T14:37:44.619Z,78.50
2017-12-04T14:40:12.097Z,78.70
2017-12-04T14:42:39.558Z,79.10
2017-12-04T14:45:07.026Z,79.20
2017-12-04T14:47:34.498Z,79.00
2017-12-04T14:50:02.057Z,79.20
2017-12-04T14:52:29.618Z,80.20
2017-12-04T14:54:57.074Z,79.50
2017-12-04T14:57:24.624Z,80.50
2017-12-04T14:59:52.080Z,79.80
2017-12-04T15:02:19.549Z,79.70
2017-12-04T15:04:47.005Z,79.70
2017-12-04T15:07:15.230Z,80.10
2017-12-04T15:09:42.685Z,79.40
2017-12-04T15:12:10.168Z,79.30
2017-12-04T15:14:37.641Z,79.40
2017-12-04T15:17:05.187Z,79.60
2017-12-04T15:19:32.649Z,79.70
2017-12-04T15:22:00.112Z,79.70
2017-12-04T15:24:27.681Z,79.50
2017-12-04T15:26:55.160Z,79.80
2017-12-04T15:29:23.385Z,80.10
2017-12-04T15:31:50.856Z,80.00
2017-12-04T15:34:18.309Z,80.00
2017-12-04T15:36:45.860Z,80.20
2017-12-04T15:39:13.429Z,80.40
2017-12-04T15:41:40.893Z,80.20
2017-12-04T15:44:08.446Z,80.60
2017-12-04T15:46:36.008Z,80.70
2017-12-04T15:49:03.560Z,80.60
2017-12-04T15:51:31.121Z,80.20
2017-12-04T15:53:58.680Z,80.20
2017-12-04T15:56:26.166Z,79.90
2017-12-04T15:58:54.420Z,79.10
2017-12-04T16:01:21.980Z,79.10
2017-12-04T16:03:49.450Z,78.80
2017-12-04T16:06:17.785Z,78.20
2017-12-04T16:08:45.262Z,78.00
2017-12-04T16:11:12.808Z,78.10
2017-12-04T16:13:40.412Z,78.40
2017-12-04T16:16:08.640Z,78.10
2017-12-04T16:18:36.102Z,77.90
2017-12-04T16:21:03.685Z,77.90
2017-12-04T16:23:31.144Z,77.70
2017-12-04T16:25:59.405Z,77.70
2017-12-04T16:28:26.876Z,77.70
2017-12-04T16:30:55.117Z,77.80
2017-12-04T16:33:22.582Z,77.70
2017-12-04T16:35:50.054Z,77.60
2017-12-04T16:38:17.534Z,77.60
2017-12-04T16:40:45.788Z,77.80
2017-12-04T16:43:14.767Z,77.70
2017-12-04T16:45:43.663Z,77.70
2017-12-04T16:48:11.762Z,77.50
2017-12-04T16:50:40.002Z,77.70
2017-12-04T16:53:07.483Z,77.70
2017-12-04T16:55:35.704Z,78.00
2017-12-04T16:58:03.216Z,78.00
2017-12-04T17:00:31.448Z,77.50
2017-12-04T17:02:58.928Z,77.50
2017-12-04T17:05:26.402Z,77.70
2017-12-04T17:07:54.658Z,77.80
2017-12-04T17:10:22.229Z,77.70
2017-12-04T17:12:49.734Z,77.80
2017-12-04T17:15:17.242Z,77.70
2017-12-04T17:17:46.234Z,77.70
2017-12-04T17:20:13.792Z,77.70
2017-12-04T17:22:41.298Z,78.40
2017-12-04T17:25:08.840Z,78.00
2017-12-04T17:27:36.300Z,78.00
2017-12-04T17:30:03.783Z,78.20
2017-12-04T17:32:31.242Z,78.50
2017-12-04T17:34:58.717Z,79.40
2017-12-04T17:37:26.172Z,78.80
2017-12-04T17:39:53.649Z,79.00
2017-12-04T17:42:21.205Z,79.20
2017-12-04T17:44:48.693Z,79.30
2017-12-04T17:47:16.934Z,79.50
2017-12-04T17:49:44.508Z,79.50
2017-12-04T17:52:12.741Z,80.80
2017-12-04T17:54:40.226Z,80.00
2017-12-04T17:57:09.209Z,80.40
2017-12-04T17:59:36.711Z,80.40
2017-12-04T18:02:04.952Z,80.90
2017-12-04T18:04:32.505Z,80.90
2017-12-04T18:06:59.979Z,81.00
2017-12-04T18:09:27.517Z,81.10
2017-12-04T18:11:54.988Z,81.40
2017-12-04T18:14:22.462Z,81.20
2017-12-04T18:16:50.708Z,81.10
2017-12-04T18:19:18.165Z,81.20
2017-12-04T18:21:45.663Z,81.00
2017-12-04T18:24:13.890Z,81.00
2017-12-04T18:26:41.349Z,81.80
2017-12-04T18:29:08.851Z,81.10
2017-12-04T18:31:37.077Z,80.90
2017-12-04T18:34:04.557Z,80.90
2017-12-04T18:36:32.045Z,81.00
2017-12-04T18:38:59.561Z,81.10
2017-12-04T18:41:27.017Z,81.20
2017-12-04T18:43:54.489Z,81.30
2017-12-04T18:46:22.716Z,81.60
2017-12-04T18:48:50.198Z,81.50
2017-12-04T18:51:17.678Z,82.30
2017-12-04T18:53:45.930Z,82.00
2017-12-04T18:56:13.387Z,81.90
2017-12-04T18:58:40.860Z,82.10
2017-12-04T19:01:08.362Z,83.10
2017-12-04T19:03:35.837Z,82.20
2017-12-04T19:06:03.305Z,82.40
2017-12-04T19:08:30.836Z,82.60
2017-12-04T19:10:58.340Z,82.50
2017-12-04T19:13:25.885Z,82.50
2017-12-04T19:15:53.350Z,82.20
2017-12-04T19:18:21.684Z,82.20
2017-12-04T19:20:49.321Z,82.10
2017-12-04T19:23:17.654Z,82.00
2017-12-04T19:25:45.117Z,82.00
2017-12-04T19:28:12.583Z,81.90
2017-12-04T19:30:40.040Z,82.00
2017-12-04T19:33:07.500Z,82.10
2017-12-04T19:35:34.971Z,82.10
2017-12-04T19:38:03.197Z,82.30
2017-12-04T19:40:30.670Z,82.30
2017-12-04T19:42:58.133Z,82.70
2017-12-04T19:45:25.609Z,82.60
2017-12-04T19:47:53.062Z,82.40
2017-12-04T19:50:20.622Z,82.60
2017-12-04T19:52:48.861Z,82.60
2017-12-04T19:55:16.336Z,82.50
2017-12-04T19:57:43.813Z,82.70
2017-12-04T20:00:11.928Z,83.00
2017-12-04T20:02:40.227Z,83.20
2017-12-04T20:05:07.716Z,83.10
2017-12-04T20:07:35.260Z,83.20
2017-12-04T20:10:02.825Z,83.00
2017-12-04T20:12:30.332Z,82.90
2017-12-04T20:14:57.832Z,83.00
2017-12-04T20:17:25.307Z,83.10
2017-12-04T20:19:53.568Z,83.20
2017-12-04T20:22:21.032Z,83.20
2017-12-04T20:24:48.595Z,83.70
2017-12-04T20:27:16.145Z,84.20
2017-12-04T20:29:43.652Z,83.80
2017-12-04T20:32:11.104Z,83.70
2017-12-04T20:34:38.569Z,83.80
2017-12-04T20:37:06.042Z,84.10
2017-12-04T20:39:33.496Z,84.10
2017-12-04T20:42:00.991Z,84.30
2017-12-04T20:44:28.507Z,84.20
2017-12-04T20:46:56.005Z,84.40
2017-12-04T20:49:23.512Z,84.60
2017-12-04T20:51:50.960Z,84.60
2017-12-04T20:54:18.437Z,84.70
2017-12-04T20:56:45.900Z,84.70
2017-12-04T20:59:13.372Z,84.80
2017-12-04T21:01:40.846Z,84.80
2017-12-04T21:04:08.300Z,84.80
2017-12-04T21:06:35.760Z,85.00
2017-12-04T21:09:15.038Z,85.30
2017-12-04T21:11:48.537Z,85.40
2017-12-04T21:14:28.009Z,89.10
2017-12-04T21:17:07.379Z,85.80
2017-12-04T21:19:34.933Z,85.50
2017-12-04T21:22:03.193Z,85.50
2017-12-04T21:24:30.661Z,85.50
2017-12-04T21:26:58.904Z,86.30
2017-12-04T21:29:26.384Z,85.70
2017-12-04T21:31:53.855Z,85.80
2017-12-04T21:34:21.352Z,85.90
2017-12-04T21:36:48.862Z,85.90
2017-12-04T21:39:16.422Z,86.00
2017-12-04T21:41:44.673Z,85.90
2017-12-04T21:44:12.159Z,86.40
2017-12-04T21:46:39.766Z,86.40
2017-12-04T21:49:07.268Z,86.50
2017-12-04T21:51:34.780Z,86.70
2017-12-04T21:54:02.301Z,86.90
2017-12-04T21:56:30.635Z,86.70
2017-12-04T21:58:58.104Z,86.70
2017-12-04T22:01:25.592Z,86.60
2017-12-04T22:03:53.825Z,86.70
2017-12-04T22:06:21.339Z,86.60
2017-12-04T22:08:49.566Z,86.80
2017-12-04T22:11:17.036Z,86.70
2017-12-04T22:13:44.514Z,86.80
2017-12-04T22:16:12.793Z,86.70
2017-12-04T22:18:41.097Z,86.70
2017-12-04T22:21:08.612Z,86.70
2017-12-04T22:23:36.079Z,87.00
2017-12-04T22:26:04.309Z,87.30
2017-12-04T22:28:31.789Z,87.30
2017-12-04T22:30:59.300Z,87.50
2017-12-04T22:33:26.756Z,88.30
2017-12-04T22:35:54.269Z,87.70
2017-12-04T22:38:21.819Z,87.70
2017-12-04T22:40:49.281Z,87.70
2017-12-04T22:43:16.748Z,87.50
2017-12-04T22:45:44.994Z,87.80
2017-12-04T22:48:12.473Z,87.50
2017-12-04T22:50:40.034Z,87.60
2017-12-04T22:53:07.497Z,87.70
2017-12-04T22:55:35.733Z,88.00
2017-12-04T22:58:03.235Z,88.00
2017-12-04T23:00:31.477Z,88.10
2017-12-04T23:02:58.950Z,88.10
2017-12-04T23:05:26.421Z,88.20
2017-12-04T23:07:54.731Z,88.70
2017-12-04T23:10:22.252Z,88.50
2017-12-04T23:12:50.469Z,88.60
2017-12-04T23:15:18.335Z,88.50
2017-12-04T23:17:45.838Z,88.70
2017-12-04T23:20:13.315Z,88.80
2017-12-04T23:22:41.528Z,88.60
2017-12-04T23:25:08.985Z,88.50
2017-12-04T23:27:36.541Z,88.70
2017-12-04T23:30:03.997Z,88.70
2017-12-04T23:32:31.507Z,88.70
2017-12-04T23:34:59.773Z,88.60
2017-12-04T23:37:27.227Z,88.50
2017-12-04T23:39:54.693Z,88.90
2017-12-04T23:42:22.928Z,89.50
2017-12-04T23:44:50.396Z,89.30
2017-12-04T23:47:17.898Z,89.20
2017-12-04T23:49:46.126Z,89.30
2017-12-04T23:52:13.612Z,89.20
2017-12-04T23:54:41.069Z,89.30
2017-12-04T23:57:08.533Z,89.30
2017-12-04T23:59:36.761Z,89.30
